createdAt,value
2018-01-17T00:00:42.273Z,3.56
2018-01-17T00:01:42.258Z,3.48
2018-01-17T00:02:42.244Z,3.53
2018-01-17T00:03:42.231Z,3.58
2018-01-17T00:04:42.219Z,3.47
2018-01-17T00:05:42.201Z,3.42
2018-01-17T00:06:42.187Z,3.37
2018-01-17T00:07:42.172Z,3.31
2018-01-17T00:08:42.159Z,3.25
2018-01-17T00:09:42.143Z,3.26
2018-01-17T00:10:42.130Z,3.22
2018-01-17T00:11:42.115Z,3.31
2018-01-17T00:12:42.103Z,3.22
2018-01-17T00:13:42.085Z,3.26
2018-01-17T00:14:42.086Z,3.28
2018-01-17T00:15:42.059Z,3.28
2018-01-17T00:16:42.041Z,3.36
2018-01-17T00:17:42.027Z,3.40
2018-01-17T00:18:42.012Z,3.44
2018-01-17T00:19:41.998Z,3.40
2018-01-17T00:20:41.992Z,3.44
2018-01-17T00:21:41.967Z,3.45
2018-01-17T00:22:41.997Z,3.42
2018-01-17T00:23:41.939Z,3.44
2018-01-17T00:24:41.924Z,3.44
2018-01-17T00:25:41.910Z,3.44
2018-01-17T00:26:41.896Z,3.41
2018-01-17T00:27:41.881Z,3.42
2018-01-17T00:28:41.866Z,3.40
2018-01-17T00:29:41.851Z,3.42
2018-01-17T00:30:41.848Z,3.40
2018-01-17T00:31:41.823Z,3.36
2018-01-17T00:32:41.808Z,3.44
2018-01-17T00:33:41.792Z,3.41
2018-01-17T00:34:41.778Z,3.36
2018-01-17T00:35:41.816Z,3.44
2018-01-17T00:36:41.750Z,3.32
2018-01-17T00:37:41.734Z,3.42
2018-01-17T00:38:41.719Z,3.44
2018-01-17T00:39:41.710Z,3.40
2018-01-17T00:40:41.691Z,3.34
2018-01-17T00:41:41.784Z,3.31
2018-01-17T00:42:41.660Z,3.32
2018-01-17T00:43:41.646Z,3.23
2018-01-17T00:44:41.632Z,3.26
2018-01-17T00:45:41.617Z,3.23
2018-01-17T00:46:41.603Z,3.26
2018-01-17T00:47:41.589Z,3.25
2018-01-17T00:48:41.574Z,3.21
2018-01-17T00:49:41.558Z,3.22
2018-01-17T00:50:41.543Z,3.21
2018-01-17T00:51:41.530Z,3.23
2018-01-17T00:52:41.516Z,3.26
2018-01-17T00:53:41.499Z,3.23
2018-01-17T00:54:41.484Z,3.25
2018-01-17T00:55:41.470Z,3.28
2018-01-17T00:56:41.465Z,3.28
2018-01-17T00:57:41.440Z,3.26
2018-01-17T00:58:41.426Z,3.23
2018-01-17T00:59:41.411Z,3.23
2018-01-17T01:00:41.396Z,3.25
2018-01-17T01:01:41.381Z,3.34
2018-01-17T01:02:41.431Z,3.29
2018-01-17T01:03:41.352Z,3.37
2018-01-17T01:04:41.337Z,3.47
2018-01-17T01:05:41.321Z,3.36
2018-01-17T01:06:41.307Z,3.45
2018-01-17T01:07:41.293Z,3.37
2018-01-17T01:08:41.278Z,3.36
2018-01-17T01:09:41.262Z,3.36
2018-01-17T01:10:41.247Z,3.37
2018-01-17T01:11:41.234Z,3.37
2018-01-17T01:12:41.219Z,3.40
2018-01-17T01:13:41.204Z,3.36
2018-01-17T01:14:41.188Z,3.36
2018-01-17T01:15:41.174Z,3.32
2018-01-17T01:16:41.160Z,3.31
2018-01-17T01:17:41.144Z,3.26
2018-01-17T01:18:41.130Z,3.34
2018-01-17T01:19:41.117Z,3.32
2018-01-17T01:20:41.101Z,3.34
2018-01-17T01:21:41.085Z,3.45
2018-01-17T01:22:41.070Z,3.42
2018-01-17T01:23:41.056Z,3.41
2018-01-17T01:24:41.041Z,3.36
2018-01-17T01:25:41.024Z,3.41
2018-01-17T01:26:41.011Z,3.44
2018-01-17T01:27:41.006Z,3.45
2018-01-17T01:28:40.983Z,3.42
2018-01-17T01:29:40.967Z,3.45
2018-01-17T01:30:40.953Z,3.32
2018-01-17T01:31:40.938Z,3.40
2018-01-17T01:32:40.924Z,3.31
2018-01-17T01:33:40.909Z,3.36
2018-01-17T01:34:40.895Z,3.34
2018-01-17T01:35:40.879Z,3.41
2018-01-17T01:36:40.864Z,3.36
2018-01-17T01:37:40.849Z,3.32
2018-01-17T01:38:40.834Z,3.44
2018-01-17T01:39:40.820Z,3.40
2018-01-17T01:40:40.804Z,3.42
2018-01-17T01:41:40.788Z,3.44
2018-01-17T01:42:40.774Z,3.42
2018-01-17T01:43:40.769Z,3.50
2018-01-17T01:44:40.745Z,3.41
2018-01-17T01:45:40.748Z,3.41
2018-01-17T01:46:40.715Z,3.44
2018-01-17T01:47:40.704Z,3.42
2018-01-17T01:48:40.686Z,3.44
2018-01-17T01:49:40.671Z,3.44
2018-01-17T01:50:40.656Z,3.41
2018-01-17T01:51:40.643Z,3.42
2018-01-17T01:52:40.628Z,3.44
2018-01-17T01:53:40.612Z,3.42
2018-01-17T01:54:40.599Z,3.41
2018-01-17T01:55:40.583Z,3.45
2018-01-17T01:56:40.571Z,3.37
2018-01-17T01:57:40.553Z,3.40
2018-01-17T01:58:40.540Z,3.47
2018-01-17T01:59:40.526Z,3.44
2018-01-17T02:00:40.510Z,3.28
2018-01-17T02:01:40.595Z,3.32
2018-01-17T02:02:40.479Z,3.23
2018-01-17T02:03:40.465Z,3.18
2018-01-17T02:04:40.450Z,3.19
2018-01-17T02:05:40.440Z,3.11
2018-01-17T02:06:40.420Z,3.07
2018-01-17T02:07:40.405Z,3.05
2018-01-17T02:08:40.392Z,3.08
2018-01-17T02:09:40.376Z,3.11
2018-01-17T02:10:40.361Z,3.19
2018-01-17T02:11:40.346Z,3.13
2018-01-17T02:12:40.332Z,3.11
2018-01-17T02:13:40.317Z,3.21
2018-01-17T02:14:40.307Z,3.22
2018-01-17T02:15:40.287Z,3.13
2018-01-17T02:16:40.272Z,3.19
2018-01-17T02:17:40.256Z,3.21
2018-01-17T02:18:40.242Z,3.14
2018-01-17T02:19:40.228Z,3.21
2018-01-17T02:20:40.214Z,3.19
2018-01-17T02:21:40.197Z,3.16
2018-01-17T02:22:40.183Z,3.18
2018-01-17T02:23:40.168Z,3.22
2018-01-17T02:24:40.162Z,3.23
2018-01-17T02:25:40.138Z,3.22
2018-01-17T02:26:40.124Z,3.36
2018-01-17T02:27:40.111Z,3.34
2018-01-17T02:28:40.094Z,3.34
2018-01-17T02:29:40.080Z,3.40
2018-01-17T02:30:40.066Z,3.32
2018-01-17T02:31:40.051Z,3.32
2018-01-17T02:32:40.035Z,3.26
2018-01-17T02:33:40.019Z,3.29
2018-01-17T02:34:40.005Z,3.23
2018-01-17T02:35:40.000Z,3.34
2018-01-17T02:36:39.976Z,3.29
2018-01-17T02:37:39.963Z,3.31
2018-01-17T02:38:39.945Z,3.34
2018-01-17T02:39:39.931Z,3.31
2018-01-17T02:40:39.924Z,3.36
2018-01-17T02:41:39.902Z,3.31
2018-01-17T02:42:39.886Z,3.22
2018-01-17T02:43:39.872Z,3.37
2018-01-17T02:44:39.858Z,3.32
2018-01-17T02:45:39.841Z,3.45
2018-01-17T02:46:39.835Z,3.36
2018-01-17T02:47:39.812Z,3.36
2018-01-17T02:48:39.798Z,3.37
2018-01-17T02:49:39.783Z,3.29
2018-01-17T02:50:39.767Z,3.36
2018-01-17T02:51:39.754Z,3.32
2018-01-17T02:52:39.739Z,3.42
2018-01-17T02:53:39.723Z,3.42
2018-01-17T02:54:39.708Z,3.44
2018-01-17T02:55:39.695Z,3.44
2018-01-17T02:56:39.689Z,3.44
2018-01-17T02:57:39.665Z,3.45
2018-01-17T02:58:39.650Z,3.44
2018-01-17T02:59:39.636Z,3.42
2018-01-17T03:00:39.623Z,3.47
2018-01-17T03:01:39.606Z,3.42
2018-01-17T03:02:39.593Z,3.48
2018-01-17T03:03:39.576Z,3.42
2018-01-17T03:04:39.564Z,3.53
2018-01-17T03:05:39.546Z,3.40
2018-01-17T03:06:39.533Z,3.47
2018-01-17T03:07:39.518Z,3.45
2018-01-17T03:08:39.503Z,3.47
2018-01-17T03:09:39.488Z,3.41
2018-01-17T03:10:39.474Z,3.41
2018-01-17T03:11:39.459Z,3.47
2018-01-17T03:12:39.445Z,3.47
2018-01-17T03:13:39.428Z,3.40
2018-01-17T03:14:39.415Z,3.48
2018-01-17T03:15:39.400Z,3.42
2018-01-17T03:16:39.387Z,3.45
2018-01-17T03:17:39.375Z,3.41
2018-01-17T03:18:39.356Z,3.41
2018-01-17T03:19:39.342Z,3.44
2018-01-17T03:20:39.328Z,3.36
2018-01-17T03:21:39.313Z,3.44
2018-01-17T03:22:39.306Z,3.45
2018-01-17T03:23:39.283Z,3.41
2018-01-17T03:24:39.269Z,3.45
2018-01-17T03:25:39.254Z,3.40
2018-01-17T03:26:39.240Z,3.44
2018-01-17T03:27:39.226Z,3.42
2018-01-17T03:28:39.209Z,3.47
2018-01-17T03:29:39.195Z,3.47
2018-01-17T03:30:39.188Z,3.44
2018-01-17T03:31:39.167Z,3.41
2018-01-17T03:32:39.152Z,3.40
2018-01-17T03:33:39.137Z,3.41
2018-01-17T03:34:39.122Z,3.37
2018-01-17T03:35:39.108Z,3.36
2018-01-17T03:36:39.094Z,3.44
2018-01-17T03:37:39.077Z,3.41
2018-01-17T03:38:39.064Z,3.41
2018-01-17T03:39:39.050Z,3.34
2018-01-17T03:40:39.035Z,3.36
2018-01-17T03:41:39.026Z,3.36
2018-01-17T03:42:39.006Z,3.34
2018-01-17T03:43:39.002Z,3.37
2018-01-17T03:44:38.976Z,3.29
2018-01-17T03:45:38.960Z,3.32
2018-01-17T03:46:38.947Z,3.34
2018-01-17T03:47:38.933Z,3.28
2018-01-17T03:48:38.919Z,3.36
2018-01-17T03:49:38.903Z,3.32
2018-01-17T03:50:38.888Z,3.31
2018-01-17T03:51:38.873Z,3.28
2018-01-17T03:52:38.860Z,3.23
2018-01-17T03:53:38.852Z,3.21
2018-01-17T03:54:38.830Z,3.18
2018-01-17T03:55:38.816Z,3.21
2018-01-17T03:56:38.801Z,3.18
2018-01-17T03:57:38.785Z,3.16
2018-01-17T03:58:38.771Z,3.16
2018-01-17T03:59:38.757Z,3.18
2018-01-17T04:00:38.743Z,3.10
2018-01-17T04:01:38.726Z,3.08
2018-01-17T04:02:38.713Z,3.21
2018-01-17T04:03:38.698Z,3.10
2018-01-17T04:04:38.684Z,3.08
2018-01-17T04:05:38.667Z,3.10
2018-01-17T04:06:38.653Z,3.05
2018-01-17T04:07:38.640Z,3.13
2018-01-17T04:08:38.626Z,3.05
2018-01-17T04:09:38.609Z,3.00
2018-01-17T04:10:38.595Z,3.05
2018-01-17T04:11:38.579Z,3.08
2018-01-17T04:12:38.564Z,3.00
2018-01-17T04:13:38.550Z,3.07
2018-01-17T04:14:38.536Z,3.05
2018-01-17T04:15:38.523Z,3.10
2018-01-17T04:16:38.505Z,3.07
2018-01-17T04:17:38.526Z,2.98
2018-01-17T04:18:38.476Z,3.08
2018-01-17T04:19:38.461Z,3.04
2018-01-17T04:20:38.447Z,3.07
2018-01-17T04:21:38.433Z,3.10
2018-01-17T04:22:38.416Z,3.11
2018-01-17T04:23:38.402Z,3.19
2018-01-17T04:24:38.388Z,3.22
2018-01-17T04:25:38.371Z,3.19
2018-01-17T04:26:38.357Z,3.19
2018-01-17T04:27:38.342Z,3.03
2018-01-17T04:28:38.329Z,3.04
2018-01-17T04:29:38.313Z,2.89
2018-01-17T04:30:38.297Z,2.64
2018-01-17T04:31:38.283Z,2.29
2018-01-17T04:32:38.268Z,1.97
2018-01-17T04:33:38.253Z,1.88
2018-01-17T04:34:38.238Z,1.77
2018-01-17T04:35:38.221Z,1.70
2018-01-17T04:36:38.266Z,1.60
2018-01-17T04:37:38.190Z,1.60
2018-01-17T04:38:38.175Z,1.56
2018-01-17T04:39:38.160Z,1.50
2018-01-17T04:40:38.143Z,1.40
2018-01-17T04:41:38.127Z,1.31
2018-01-17T04:42:38.112Z,1.14
2018-01-17T04:43:38.097Z,1.19
2018-01-17T04:44:38.081Z,1.10
2018-01-17T04:45:38.064Z,1.12
2018-01-17T04:46:38.047Z,1.12
2018-01-17T04:47:38.032Z,1.17
2018-01-17T04:48:38.024Z,1.19
2018-01-17T04:49:37.999Z,1.20
2018-01-17T04:50:37.983Z,1.19
2018-01-17T04:51:37.966Z,1.17
2018-01-17T04:52:37.950Z,1.16
2018-01-17T04:53:37.934Z,1.16
2018-01-17T04:54:37.937Z,1.20
2018-01-17T04:55:37.901Z,1.02
2018-01-17T04:56:37.887Z,1.10
2018-01-17T04:57:37.868Z,1.02
2018-01-17T04:58:37.852Z,1.08
2018-01-17T04:59:37.835Z,1.08
2018-01-17T05:00:37.820Z,1.04
2018-01-17T05:01:37.804Z,1.16
2018-01-17T05:02:37.787Z,1.04
2018-01-17T05:03:37.770Z,1.12
2018-01-17T05:04:37.753Z,1.10
2018-01-17T05:05:37.746Z,1.13
2018-01-17T05:06:37.720Z,1.20
2018-01-17T05:07:37.704Z,1.08
2018-01-17T05:08:37.688Z,1.17
2018-01-17T05:09:37.670Z,1.13
2018-01-17T05:10:37.655Z,1.12
2018-01-17T05:11:37.638Z,1.12
2018-01-17T05:12:37.621Z,1.08
2018-01-17T05:13:37.605Z,1.06
2018-01-17T05:14:37.588Z,1.10
2018-01-17T05:15:37.572Z,1.06
2018-01-17T05:16:37.556Z,0.99
2018-01-17T05:17:37.539Z,1.01
2018-01-17T05:18:37.522Z,0.95
2018-01-17T05:19:37.505Z,0.95
2018-01-17T05:20:37.490Z,1.01
2018-01-17T05:21:37.473Z,0.98
2018-01-17T05:22:37.456Z,1.01
2018-01-17T05:23:37.438Z,0.95
2018-01-17T05:24:37.422Z,1.02
2018-01-17T05:25:37.409Z,0.96
2018-01-17T05:26:37.390Z,1.08
2018-01-17T05:27:37.372Z,1.06
2018-01-17T05:28:37.360Z,1.04
2018-01-17T05:29:37.339Z,1.12
2018-01-17T05:30:37.323Z,1.16
2018-01-17T05:31:37.308Z,1.08
2018-01-17T05:32:37.290Z,1.04
2018-01-17T05:33:37.283Z,1.17
2018-01-17T05:34:37.257Z,1.12
2018-01-17T05:35:37.242Z,1.14
2018-01-17T05:36:37.226Z,1.10
2018-01-17T05:37:37.209Z,1.06
2018-01-17T05:38:37.192Z,1.17
2018-01-17T05:39:37.175Z,1.17
2018-01-17T05:40:37.159Z,1.19
2018-01-17T05:41:37.143Z,1.22
2018-01-17T05:42:37.126Z,1.23
2018-01-17T05:43:37.110Z,1.23
2018-01-17T05:44:37.094Z,1.34
2018-01-17T05:45:37.077Z,1.37
2018-01-17T05:46:37.070Z,1.40
2018-01-17T05:47:37.046Z,1.32
2018-01-17T05:48:37.029Z,1.30
2018-01-17T05:49:37.012Z,1.32
2018-01-17T05:50:36.996Z,1.16
2018-01-17T05:51:36.980Z,1.24
2018-01-17T05:52:36.973Z,1.23
2018-01-17T05:53:36.947Z,1.23
2018-01-17T05:54:36.931Z,1.26
2018-01-17T05:55:36.915Z,1.28
2018-01-17T05:56:36.899Z,1.22
2018-01-17T05:57:36.931Z,1.30
2018-01-17T05:58:36.867Z,1.23
2018-01-17T05:59:36.850Z,1.22
2018-01-17T06:00:36.835Z,1.24
2018-01-17T06:01:36.818Z,1.32
2018-01-17T06:02:36.810Z,1.23
2018-01-17T06:03:36.786Z,1.31
2018-01-17T06:04:36.771Z,1.23
2018-01-17T06:05:36.753Z,1.32
2018-01-17T06:06:36.739Z,1.32
2018-01-17T06:07:36.723Z,1.38
2018-01-17T06:08:36.706Z,1.34
2018-01-17T06:09:36.688Z,1.44
2018-01-17T06:10:36.673Z,1.42
2018-01-17T06:11:36.658Z,1.62
2018-01-17T06:12:36.642Z,1.60
2018-01-17T06:13:36.625Z,1.58
2018-01-17T06:14:36.609Z,1.63
2018-01-17T06:15:36.593Z,1.58
2018-01-17T06:16:36.577Z,1.41
2018-01-17T06:17:36.564Z,1.40
2018-01-17T06:18:36.546Z,1.17
2018-01-17T06:19:36.529Z,1.12
2018-01-17T06:20:36.513Z,1.04
2018-01-17T06:21:36.497Z,0.99
2018-01-17T06:22:36.481Z,0.95
2018-01-17T06:23:36.465Z,0.98
2018-01-17T06:24:36.448Z,1.06
2018-01-17T06:25:36.431Z,0.92
2018-01-17T06:26:36.415Z,0.92
2018-01-17T06:27:36.400Z,0.87
2018-01-17T06:28:36.385Z,0.81
2018-01-17T06:29:36.366Z,0.77
2018-01-17T06:30:36.350Z,0.65
2018-01-17T06:31:36.333Z,0.66
2018-01-17T06:32:36.318Z,0.83
2018-01-17T06:33:36.301Z,0.73
2018-01-17T06:34:36.284Z,0.78
2018-01-17T06:35:36.268Z,0.86
2018-01-17T06:36:36.251Z,0.78
2018-01-17T06:37:36.235Z,0.78
2018-01-17T06:38:36.218Z,0.73
2018-01-17T06:39:36.205Z,0.65
2018-01-17T06:40:36.185Z,0.76
2018-01-17T06:41:36.168Z,0.76
2018-01-17T06:42:36.151Z,0.70
2018-01-17T06:43:36.143Z,0.74
2018-01-17T06:44:36.119Z,0.73
2018-01-17T06:45:36.102Z,0.63
2018-01-17T06:46:36.085Z,0.63
2018-01-17T06:47:36.068Z,0.62
2018-01-17T06:48:36.052Z,0.50
2018-01-17T06:49:36.043Z,0.55
2018-01-17T06:50:36.018Z,0.44
2018-01-17T06:51:36.002Z,0.47
2018-01-17T06:52:35.985Z,0.49
2018-01-17T06:53:35.968Z,0.55
2018-01-17T06:54:35.951Z,0.52
2018-01-17T06:55:36.045Z,0.55
2018-01-17T06:56:35.918Z,0.63
2018-01-17T06:57:35.901Z,0.60
2018-01-17T06:58:35.885Z,0.62
2018-01-17T06:59:35.869Z,0.60
2018-01-17T07:00:35.852Z,0.55
2018-01-17T07:01:35.843Z,0.58
2018-01-17T07:02:35.818Z,0.58
2018-01-17T07:03:35.801Z,0.58
2018-01-17T07:04:35.785Z,0.59
2018-01-17T07:05:35.767Z,0.59
2018-01-17T07:06:35.752Z,0.63
2018-01-17T07:07:35.735Z,0.56
2018-01-17T07:08:35.720Z,0.55
2018-01-17T07:09:35.701Z,0.68
2018-01-17T07:10:35.690Z,0.76
2018-01-17T07:11:35.669Z,0.66
2018-01-17T07:12:35.653Z,0.73
2018-01-17T07:13:35.635Z,0.73
2018-01-17T07:14:35.619Z,0.74
2018-01-17T07:15:35.603Z,0.77
2018-01-17T07:16:35.587Z,0.74
2018-01-17T07:17:35.570Z,0.78
2018-01-17T07:18:35.552Z,0.77
2018-01-17T07:19:35.537Z,0.68
2018-01-17T07:20:35.520Z,0.77
2018-01-17T07:21:35.503Z,0.80
2018-01-17T07:22:35.488Z,0.78
2018-01-17T07:23:35.471Z,0.76
2018-01-17T07:24:35.455Z,0.77
2018-01-17T07:25:35.437Z,0.77
2018-01-17T07:26:35.422Z,0.78
2018-01-17T07:27:35.409Z,0.77
2018-01-17T07:28:35.390Z,0.80
2018-01-17T07:29:35.373Z,0.86
2018-01-17T07:30:35.356Z,0.88
2018-01-17T07:31:35.366Z,0.92
2018-01-17T07:32:35.332Z,0.88
2018-01-17T07:33:35.307Z,0.92
2018-01-17T07:34:35.291Z,1.02
2018-01-17T07:35:35.274Z,0.91
2018-01-17T07:36:35.261Z,0.98
2018-01-17T07:37:35.249Z,0.98
2018-01-17T07:38:35.224Z,0.95
2018-01-17T07:39:35.208Z,0.99
2018-01-17T07:40:35.192Z,0.96
2018-01-17T07:41:35.176Z,0.96
2018-01-17T07:42:35.169Z,0.96
2018-01-17T07:43:35.143Z,1.01
2018-01-17T07:44:35.127Z,1.02
2018-01-17T07:45:35.110Z,0.96
2018-01-17T07:46:35.095Z,1.01
2018-01-17T07:47:35.079Z,0.99
2018-01-17T07:48:35.062Z,1.04
2018-01-17T07:49:35.045Z,1.02
2018-01-17T07:50:35.030Z,0.99
2018-01-17T07:51:35.014Z,1.04
2018-01-17T07:52:34.998Z,1.01
2018-01-17T07:53:35.044Z,1.06
2018-01-17T07:54:34.965Z,1.01
2018-01-17T07:55:34.950Z,1.05
2018-01-17T07:56:34.934Z,0.98
2018-01-17T07:57:34.916Z,0.95
2018-01-17T07:58:34.910Z,0.96
2018-01-17T07:59:34.885Z,0.99
2018-01-17T08:00:34.870Z,1.01
2018-01-17T08:01:34.856Z,1.02
2018-01-17T08:02:34.838Z,0.96
2018-01-17T08:03:34.822Z,0.98
2018-01-17T08:04:34.806Z,0.99
2018-01-17T08:05:34.789Z,0.98
2018-01-17T08:06:34.773Z,1.01
2018-01-17T08:07:34.757Z,0.98
2018-01-17T08:08:34.742Z,0.95
2018-01-17T08:09:34.725Z,0.96
2018-01-17T08:10:34.708Z,1.04
2018-01-17T08:11:34.693Z,1.06
2018-01-17T08:12:34.677Z,1.10
2018-01-17T08:13:34.714Z,1.13
2018-01-17T08:14:34.645Z,1.05
2018-01-17T08:15:34.627Z,1.04
2018-01-17T08:16:34.612Z,1.13
2018-01-17T08:17:34.595Z,1.06
2018-01-17T08:18:34.580Z,1.06
2018-01-17T08:19:34.564Z,1.10
2018-01-17T08:20:34.559Z,1.13
2018-01-17T08:21:34.531Z,1.19
2018-01-17T08:22:34.515Z,1.20
2018-01-17T08:23:34.501Z,1.24
2018-01-17T08:24:34.484Z,1.24
2018-01-17T08:25:34.467Z,1.24
2018-01-17T08:26:34.452Z,1.26
2018-01-17T08:27:34.437Z,1.26
2018-01-17T08:28:34.422Z,1.28
2018-01-17T08:29:34.404Z,1.24
2018-01-17T08:30:34.388Z,1.22
2018-01-17T08:31:34.372Z,1.13
2018-01-17T08:32:34.357Z,0.96
2018-01-17T08:33:34.345Z,1.13
2018-01-17T08:34:34.330Z,1.13
2018-01-17T08:35:34.309Z,1.08
2018-01-17T08:36:34.293Z,1.16
2018-01-17T08:37:34.276Z,1.08
2018-01-17T08:38:34.262Z,1.14
2018-01-17T08:39:34.245Z,1.14
2018-01-17T08:40:34.229Z,1.22
2018-01-17T08:41:34.234Z,1.14
2018-01-17T08:42:34.197Z,1.26
2018-01-17T08:43:34.183Z,1.17
2018-01-17T08:44:34.167Z,1.28
2018-01-17T08:45:34.152Z,1.20
2018-01-17T08:46:34.134Z,1.22
2018-01-17T08:47:34.119Z,1.23
2018-01-17T08:48:34.103Z,1.23
2018-01-17T08:49:34.086Z,1.22
2018-01-17T08:50:34.071Z,1.20
2018-01-17T08:51:34.055Z,1.30
2018-01-17T08:52:34.040Z,1.22
2018-01-17T08:53:34.025Z,1.12
2018-01-17T08:54:34.008Z,1.24
2018-01-17T08:55:34.002Z,1.19
2018-01-17T08:56:33.977Z,1.14
2018-01-17T08:57:33.961Z,1.14
2018-01-17T08:58:33.947Z,1.20
2018-01-17T08:59:33.933Z,1.12
2018-01-17T09:00:33.915Z,1.10
2018-01-17T09:01:33.899Z,1.14
2018-01-17T09:02:33.882Z,1.12
2018-01-17T09:03:33.867Z,1.14
2018-01-17T09:04:33.851Z,1.14
2018-01-17T09:05:33.836Z,0.99
2018-01-17T09:06:33.820Z,1.04
2018-01-17T09:07:33.805Z,1.01
2018-01-17T09:08:33.789Z,1.02
2018-01-17T09:09:33.772Z,0.99
2018-01-17T09:10:33.758Z,1.10
2018-01-17T09:11:33.742Z,1.08
2018-01-17T09:12:33.726Z,1.12
2018-01-17T09:13:33.711Z,1.13
2018-01-17T09:14:33.696Z,1.06
2018-01-17T09:15:33.679Z,1.13
2018-01-17T09:16:33.664Z,1.12
2018-01-17T09:17:33.646Z,1.14
2018-01-17T09:18:33.631Z,1.12
2018-01-17T09:19:33.615Z,1.12
2018-01-17T09:20:33.614Z,1.17
2018-01-17T09:21:33.584Z,1.20
2018-01-17T09:22:33.568Z,1.20
2018-01-17T09:23:33.553Z,1.24
2018-01-17T09:24:33.537Z,1.13
2018-01-17T09:25:33.525Z,1.22
2018-01-17T09:26:33.506Z,1.24
2018-01-17T09:27:33.489Z,1.23
2018-01-17T09:28:33.474Z,1.26
2018-01-17T09:29:33.458Z,1.28
2018-01-17T09:30:33.443Z,1.24
2018-01-17T09:31:33.426Z,1.28
2018-01-17T09:32:33.411Z,1.37
2018-01-17T09:33:33.394Z,1.45
2018-01-17T09:34:33.383Z,1.44
2018-01-17T09:35:33.367Z,1.56
2018-01-17T09:36:33.349Z,1.58
2018-01-17T09:37:33.333Z,1.60
2018-01-17T09:38:33.317Z,1.74
2018-01-17T09:39:33.303Z,1.88
2018-01-17T09:40:33.289Z,1.85
2018-01-17T09:41:33.281Z,1.94
2018-01-17T09:42:33.259Z,1.95
2018-01-17T09:43:33.245Z,2.00
2018-01-17T09:44:33.230Z,1.97
2018-01-17T09:45:33.215Z,1.97
2018-01-17T09:46:33.201Z,2.02
2018-01-17T09:47:33.187Z,2.04
2018-01-17T09:48:33.172Z,2.02
2018-01-17T09:49:33.157Z,1.89
2018-01-17T09:50:33.143Z,1.88
2018-01-17T09:51:33.132Z,1.87
2018-01-17T09:52:33.120Z,1.84
2018-01-17T09:53:33.099Z,1.87
2018-01-17T09:54:33.085Z,1.74
2018-01-17T09:55:33.069Z,1.77
2018-01-17T09:56:33.063Z,1.85
2018-01-17T09:57:33.041Z,1.87
2018-01-17T09:58:33.025Z,1.88
2018-01-17T09:59:33.012Z,1.84
2018-01-17T10:00:32.997Z,1.78
2018-01-17T10:01:32.982Z,1.85
2018-01-17T10:02:32.981Z,1.87
2018-01-17T10:03:32.953Z,1.80
2018-01-17T10:04:32.940Z,1.94
2018-01-17T10:05:32.924Z,1.94
2018-01-17T10:06:32.910Z,1.88
2018-01-17T10:07:32.899Z,1.87
2018-01-17T10:08:32.882Z,1.88
2018-01-17T10:09:32.865Z,1.73
2018-01-17T10:10:32.855Z,1.85
2018-01-17T10:11:32.837Z,1.84
2018-01-17T10:12:32.833Z,1.76
2018-01-17T10:13:32.806Z,1.77
2018-01-17T10:14:32.792Z,1.85
2018-01-17T10:15:32.777Z,1.84
2018-01-17T10:16:32.762Z,1.81
2018-01-17T10:17:32.747Z,1.76
2018-01-17T10:18:32.732Z,1.63
2018-01-17T10:19:32.716Z,1.52
2018-01-17T10:20:32.701Z,1.56
2018-01-17T10:21:32.685Z,1.56
2018-01-17T10:22:32.672Z,1.45
2018-01-17T10:23:32.655Z,1.37
2018-01-17T10:24:32.640Z,1.35
2018-01-17T10:25:32.623Z,1.32
2018-01-17T10:26:32.608Z,1.37
2018-01-17T10:27:32.593Z,1.35
2018-01-17T10:28:32.679Z,1.45
2018-01-17T10:29:32.564Z,1.49
2018-01-17T10:30:32.544Z,1.42
2018-01-17T10:31:32.529Z,1.53
2018-01-17T10:32:32.515Z,1.52
2018-01-17T10:33:32.498Z,1.60
2018-01-17T10:34:32.482Z,1.56
2018-01-17T10:35:32.467Z,1.58
2018-01-17T10:36:32.451Z,1.67
2018-01-17T10:37:32.443Z,1.66
2018-01-17T10:38:32.420Z,1.70
2018-01-17T10:39:32.404Z,1.62
2018-01-17T10:40:32.389Z,1.60
2018-01-17T10:41:32.372Z,1.62
2018-01-17T10:42:32.357Z,1.63
2018-01-17T10:43:32.343Z,1.63
2018-01-17T10:44:32.367Z,1.56
2018-01-17T10:45:32.310Z,1.70
2018-01-17T10:46:32.294Z,1.74
2018-01-17T10:47:32.280Z,1.71
2018-01-17T10:48:32.265Z,1.70
2018-01-17T10:49:32.248Z,1.74
2018-01-17T10:50:32.260Z,1.76
2018-01-17T10:51:32.218Z,1.55
2018-01-17T10:52:32.203Z,1.50
2018-01-17T10:53:32.187Z,1.40
2018-01-17T10:54:32.174Z,1.28
2018-01-17T10:55:32.159Z,1.10
2018-01-17T10:56:32.142Z,1.13
2018-01-17T10:57:32.123Z,1.06
2018-01-17T10:58:32.108Z,1.06
2018-01-17T10:59:32.093Z,1.06
2018-01-17T11:00:32.077Z,1.02
2018-01-17T11:01:32.060Z,1.14
2018-01-17T11:02:32.045Z,1.16
2018-01-17T11:03:32.030Z,1.30
2018-01-17T11:04:32.017Z,1.16
2018-01-17T11:05:31.998Z,1.40
2018-01-17T11:06:31.982Z,1.49
2018-01-17T11:07:31.970Z,1.41
2018-01-17T11:08:31.953Z,1.58
2018-01-17T11:09:31.945Z,1.62
2018-01-17T11:10:31.921Z,1.68
2018-01-17T11:11:31.911Z,1.76
2018-01-17T11:12:31.891Z,1.80
2018-01-17T11:13:31.876Z,1.70
2018-01-17T11:14:31.863Z,1.73
2018-01-17T11:15:31.848Z,1.74
2018-01-17T11:16:31.832Z,1.71
2018-01-17T11:17:31.817Z,1.84
2018-01-17T11:18:31.802Z,1.74
2018-01-17T11:19:31.789Z,1.81
2018-01-17T11:20:31.774Z,1.73
2018-01-17T11:21:31.757Z,1.85
2018-01-17T11:22:31.746Z,1.84
2018-01-17T11:23:31.728Z,1.94
2018-01-17T11:24:31.714Z,2.00
2018-01-17T11:25:31.699Z,1.99
2018-01-17T11:26:31.684Z,2.10
2018-01-17T11:27:31.669Z,2.20
2018-01-17T11:28:31.655Z,2.11
2018-01-17T11:29:31.649Z,2.17
2018-01-17T11:30:31.626Z,2.22
2018-01-17T11:31:31.611Z,2.14
2018-01-17T11:32:31.597Z,2.18
2018-01-17T11:33:31.582Z,2.14
2018-01-17T11:34:31.568Z,2.13
2018-01-17T11:35:31.573Z,2.07
2018-01-17T11:36:31.538Z,2.02
2018-01-17T11:37:31.524Z,2.00
2018-01-17T11:38:31.508Z,2.06
2018-01-17T11:39:31.501Z,2.20
2018-01-17T11:40:31.480Z,2.14
2018-01-17T11:41:31.466Z,2.20
2018-01-17T11:42:31.450Z,2.22
2018-01-17T11:43:31.437Z,2.13
2018-01-17T11:44:31.426Z,2.18
2018-01-17T11:45:31.407Z,2.08
2018-01-17T11:46:31.392Z,2.04
2018-01-17T11:47:31.377Z,2.06
2018-01-17T11:48:31.362Z,1.97
2018-01-17T11:49:31.347Z,2.00
2018-01-17T11:50:31.347Z,2.00
2018-01-17T11:51:31.318Z,2.02
2018-01-17T11:52:31.303Z,2.04
2018-01-17T11:53:31.288Z,2.10
2018-01-17T11:54:31.274Z,2.07
2018-01-17T11:55:31.259Z,1.97
2018-01-17T11:56:31.243Z,2.06
2018-01-17T11:57:31.228Z,2.00
2018-01-17T11:58:31.212Z,2.11
2018-01-17T11:59:31.199Z,2.08
2018-01-17T12:00:31.184Z,2.00
2018-01-17T12:01:31.171Z,2.08
2018-01-17T12:02:31.152Z,2.14
2018-01-17T12:03:31.138Z,2.15
2018-01-17T12:04:31.123Z,2.17
2018-01-17T12:05:31.109Z,2.24
2018-01-17T12:06:31.092Z,2.28
2018-01-17T12:07:31.078Z,2.32
2018-01-17T12:08:31.063Z,2.43
2018-01-17T12:09:31.048Z,2.56
2018-01-17T12:10:31.035Z,2.67
2018-01-17T12:11:31.020Z,2.77
2018-01-17T12:12:31.005Z,2.93
2018-01-17T12:13:30.990Z,2.93
2018-01-17T12:14:30.976Z,2.83
2018-01-17T12:15:30.963Z,2.85
2018-01-17T12:16:30.957Z,2.80
2018-01-17T12:17:30.933Z,2.86
2018-01-17T12:18:30.919Z,3.00
2018-01-17T12:19:30.906Z,3.05
2018-01-17T12:20:30.898Z,3.05
2018-01-17T12:21:30.892Z,2.92
2018-01-17T12:22:30.864Z,2.75
2018-01-17T12:23:30.850Z,2.92
2018-01-17T12:24:30.837Z,2.79
2018-01-17T12:25:30.822Z,2.74
2018-01-17T12:26:30.808Z,2.75
2018-01-17T12:27:30.795Z,2.65
2018-01-17T12:28:30.783Z,2.67
2018-01-17T12:29:30.765Z,2.71
2018-01-17T12:30:30.751Z,2.80
2018-01-17T12:31:30.738Z,2.80
2018-01-17T12:32:30.723Z,2.77
2018-01-17T12:33:30.707Z,2.98
2018-01-17T12:34:30.693Z,3.08
2018-01-17T12:35:30.680Z,3.03
2018-01-17T12:36:30.667Z,3.11
2018-01-17T12:37:30.652Z,3.01
2018-01-17T12:38:30.638Z,3.10
2018-01-17T12:39:30.624Z,2.98
2018-01-17T12:40:30.610Z,3.13
2018-01-17T12:41:30.596Z,3.13
2018-01-17T12:42:30.583Z,3.11
2018-01-17T12:43:30.568Z,3.04
2018-01-17T12:44:30.555Z,3.07
2018-01-17T12:45:30.540Z,3.07
2018-01-17T12:46:30.536Z,3.05
2018-01-17T12:47:30.513Z,3.10
2018-01-17T12:48:30.498Z,3.05
2018-01-17T12:49:30.487Z,3.05
2018-01-17T12:50:30.470Z,3.08
2018-01-17T12:51:30.469Z,3.23
2018-01-17T12:52:30.443Z,3.10
2018-01-17T12:53:30.433Z,3.08
2018-01-17T12:54:30.415Z,3.08
2018-01-17T12:55:30.400Z,3.13
2018-01-17T12:56:30.389Z,3.08
2018-01-17T12:57:30.373Z,3.10
2018-01-17T12:58:30.357Z,3.08
2018-01-17T12:59:30.344Z,3.14
2018-01-17T13:00:30.330Z,3.19
2018-01-17T13:01:30.316Z,3.22
2018-01-17T13:02:30.313Z,3.25
2018-01-17T13:03:30.287Z,3.26
2018-01-17T13:04:30.273Z,3.26
2018-01-17T13:05:30.259Z,3.36
2018-01-17T13:06:30.245Z,3.42
2018-01-17T13:07:30.233Z,3.60
2018-01-17T13:08:30.219Z,3.62
2018-01-17T13:09:30.204Z,3.66
2018-01-17T13:10:30.190Z,3.69
2018-01-17T13:11:30.178Z,3.73
2018-01-17T13:12:30.165Z,3.70
2018-01-17T13:13:30.151Z,3.73
2018-01-17T13:14:30.136Z,3.66
2018-01-17T13:15:30.128Z,3.53
2018-01-17T13:16:30.110Z,3.58
2018-01-17T13:17:30.104Z,3.47
2018-01-17T13:18:30.084Z,3.47